Weather at Maquehue Airport

Public forecast

Using degrees Celsius for public forecast. Weather courtesy of forecast.io.

Closest aviation weather report (METAR) to Maquehue Airport

Closest report is La Araucanía Airport, 9.6 nm (17.7 km) S.

2024/06/22 06:00 (retrieved 40 minutes ago)

SCQP 220600Z 33007KT 9999 -RA BKN021 BKN045 07/07 Q1009

Closest aviation forecast (TAF) to Maquehue Airport

Closest forecast is La Araucanía Airport, 9.6 nm (17.7 km) S.

2024/06/22 06:00 (retrieved 40 minutes ago)

TAF SCQP 220403Z 2206/2306 35008KT 9999 SCT010 BKN020 BKN040 TN05/2210Z TX08/2219Z TEMPO 2214/2223 36015KT 7000 -SHRA BECMG 2300/2302 36004KT BKN035